Time;durP1;ratioP1;P1;durP2;ratioP2;P2;SDS_P1;SDS_P2;PMS_P1;PMS_P2;Temp;Humidity;BMP_temperature;BMP_pressure;BME280_temperature;BME280_humidity;BME280_pressure;Samples;Min_cycle;Max_cycle;Signal;HPM_P1;HPM_P2
2022/05/11 00:01:46;;;;;;;5.13;3.05;;;16.20;99.90;;;17.14;73.52;165054.00;5080546;28;20088;-82
2022/05/11 00:04:14;;;;;;;5.88;2.90;;;16.20;99.90;;;17.16;73.50;165059.34;5077984;28;20082;-82
2022/05/11 00:06:40;;;;;;;3.90;2.63;;;16.20;99.90;;;17.17;72.29;165060.69;5076620;28;20025;-83
2022/05/11 00:09:10;;;;;;;5.13;2.83;;;16.20;99.90;;;17.16;71.91;165059.34;5076961;28;20068;-80
2022/05/11 00:11:37;;;;;;;4.93;2.20;;;16.20;99.90;;;17.16;70.73;165059.34;5076818;28;20087;-81
2022/05/11 00:14:05;;;;;;;3.72;1.92;;;16.20;99.90;;;17.21;69.61;165071.44;5077055;28;20081;-79
2022/05/11 00:16:32;;;;;;;3.15;1.77;;;16.20;99.90;;;17.23;69.65;165076.78;5074319;28;20119;-82
2022/05/11 00:18:58;;;;;;;4.32;2.47;;;16.20;99.90;;;17.22;70.50;165075.44;5075205;28;20037;-81
2022/05/11 00:21:26;;;;;;;4.72;2.67;;;16.20;99.90;;;17.22;72.46;165075.44;5074727;28;20073;-81
2022/05/11 00:23:53;;;;;;;3.90;2.28;;;16.20;99.90;;;17.12;73.31;165048.59;5076391;28;20074;-80
2022/05/11 00:26:20;;;;;;;6.25;2.35;;;16.10;99.90;;;17.10;73.41;165041.91;5076129;28;20363;-81
2022/05/11 00:28:46;;;;;;;5.68;2.72;;;16.10;99.90;;;17.10;74.10;165041.91;5076418;28;20040;-81
2022/05/11 00:31:12;;;;;;;6.78;2.80;;;16.10;99.90;;;17.08;73.99;165037.88;5076381;28;20028;-82
2022/05/11 00:33:39;;;;;;;6.30;2.65;;;16.10;99.90;;;17.07;74.06;165033.84;5074770;28;20029;-82
2022/05/11 00:36:12;;;;;;;6.30;2.90;;;16.10;99.90;;;17.06;74.81;165032.50;5076100;28;20043;-83
2022/05/11 00:38:40;;;;;;;6.35;3.08;;;16.10;99.90;;;17.04;75.68;165027.16;5076155;28;20029;-82
2022/05/11 00:41:06;;;;;;;7.15;2.95;;;16.00;99.90;;;17.00;76.59;165016.44;5076279;28;20043;-81
2022/05/11 00:43:37;;;;;;;4.03;2.50;;;16.00;99.90;;;16.96;77.09;165004.34;5076229;28;20029;-81
2022/05/11 00:46:33;;;;;;;6.13;3.15;;;15.90;99.90;;;16.95;78.11;165001.69;5074784;28;20029;-81
2022/05/11 00:49:34;;;;;;;8.82;3.65;;;15.90;99.90;;;16.84;78.36;164973.50;5076682;28;20036;-82
2022/05/11 00:52:25;;;;;;;3.60;2.85;;;15.90;99.90;;;16.86;76.90;164978.84;5075429;28;20041;-82
2022/05/11 00:55:05;;;;;;;3.85;2.63;;;15.90;99.90;;;16.91;75.58;164992.28;5075691;28;20094;-82
2022/05/11 00:57:57;;;;;;;5.03;2.78;;;16.00;99.90;;;16.95;75.42;165003.03;5075334;28;20154;-83
2022/05/11 01:00:25;;;;;;;4.78;2.70;;;16.00;99.90;;;16.94;75.11;165000.34;5075397;28;20035;-83
2022/05/11 01:03:03;;;;;;;6.65;2.80;;;16.00;99.90;;;16.93;75.59;164997.66;5076416;28;20042;-82
2022/05/11 01:05:30;;;;;;;3.65;2.67;;;16.00;99.90;;;16.95;74.58;165001.69;5076308;28;20032;-83
2022/05/11 01:07:58;;;;;;;3.70;2.70;;;16.00;99.90;;;16.94;74.41;165000.34;5077145;28;20031;-81
2022/05/11 01:10:30;;;;;;;6.07;2.47;;;16.00;99.90;;;16.95;73.54;165001.69;5066376;28;20037;-83
2022/05/11 01:13:04;;;;;;;4.00;2.95;;;16.00;99.90;;;16.95;73.56;165003.03;5056173;28;20044;-82
2022/05/11 01:15:33;;;;;;;5.40;2.50;;;16.00;99.90;;;16.93;73.54;164996.28;5054950;28;20040;-82
2022/05/11 01:18:06;;;;;;;6.20;2.35;;;16.00;99.90;;;16.89;73.59;164986.91;5057511;28;20119;-81
2022/05/11 01:20:35;;;;;;;4.30;2.42;;;16.00;99.90;;;16.91;73.91;164992.28;5057735;28;20089;-82
2022/05/11 01:23:41;;;;;;;5.53;2.47;;;16.00;99.90;;;16.93;74.54;164996.28;5055832;28;20029;-80
2022/05/11 01:26:07;;;;;;;4.55;2.80;;;15.90;99.90;;;16.88;76.50;164982.91;5053661;28;20036;-81
2022/05/11 01:28:41;;;;;;;6.70;3.00;;;15.90;99.90;;;16.81;77.71;164965.47;5053594;28;20036;-80
2022/05/11 01:31:12;;;;;;;6.43;2.85;;;15.80;99.90;;;16.74;78.54;164948.03;5053932;28;20029;-82
2022/05/11 01:33:46;;;;;;;4.35;2.95;;;15.80;99.90;;;16.74;78.21;164946.69;5053649;28;20037;-80
2022/05/11 01:36:41;;;;;;;4.13;2.60;;;15.80;99.90;;;16.68;78.57;164931.94;5054543;28;20052;-81
2022/05/11 01:39:09;;;;;;;5.28;3.08;;;15.80;99.90;;;16.67;78.40;164929.25;5052977;28;20141;-81
2022/05/11 01:41:50;;;;;;;3.28;2.50;;;15.80;99.90;;;16.73;76.88;164945.34;5053390;28;20025;-81
2022/05/11 01:44:20;;;;;;;4.55;3.13;;;15.80;99.90;;;16.67;76.78;164929.25;5053322;28;20033;-82
2022/05/11 01:46:56;;;;;;;5.55;2.88;;;15.80;99.90;;;16.74;76.50;164948.03;5052861;28;20036;-82
2022/05/11 01:49:24;;;;;;;5.20;2.83;;;15.80;99.90;;;16.75;76.03;164949.38;5066671;28;20029;-83
2022/05/11 01:51:51;;;;;;;7.03;2.75;;;15.90;99.90;;;16.82;75.93;164969.47;5055682;28;20428;-81
2022/05/11 01:54:17;;;;;;;4.30;2.60;;;15.80;99.90;;;16.85;76.39;164976.22;5053575;28;20036;-82
2022/05/11 01:56:43;;;;;;;5.55;2.97;;;15.80;99.90;;;16.80;76.74;164962.78;5054264;28;20192;-83
2022/05/11 01:59:10;;;;;;;3.88;2.45;;;15.80;99.90;;;16.74;76.87;164948.03;5054668;28;20419;-83
2022/05/11 02:01:40;;;;;;;4.05;2.75;;;15.80;99.90;;;16.74;76.55;164948.03;5052633;28;20056;-81
2022/05/11 02:09:41;;;;;;;5.85;2.80;;;15.80;99.90;;;16.76;76.81;164953.38;5057892;28;20051;-82
2022/05/11 02:12:12;;;;;;;4.00;2.70;;;15.80;99.90;;;16.71;76.89;164940.00;5072857;28;20085;-81
2022/05/11 02:14:39;;;;;;;6.68;3.30;;;15.80;99.90;;;16.70;76.47;164937.31;5074638;28;20021;-81
2022/05/11 02:17:06;;;;;;;3.05;2.53;;;15.80;99.90;;;16.71;74.52;164940.00;5074906;28;20104;-82
2022/05/11 02:19:32;;;;;;;3.80;2.47;;;15.80;99.90;;;16.80;74.06;164964.13;5073640;28;20020;-82
2022/05/11 02:21:58;;;;;;;4.00;2.50;;;15.90;99.90;;;16.88;73.70;164982.91;5073528;28;20082;-82
2022/05/11 02:24:23;;;;;;;3.35;2.80;;;15.90;99.90;;;16.83;74.08;164970.81;5075584;28;20029;-83
2022/05/11 02:26:50;;;;;;;2.72;2.22;;;15.90;99.90;;;16.76;74.36;164953.38;5074809;28;20081;-84
2022/05/11 02:29:16;;;;;;;4.70;2.70;;;15.90;99.90;;;16.75;74.25;164949.38;5076440;28;20069;-82
2022/05/11 02:31:42;;;;;;;6.32;3.03;;;15.80;99.90;;;16.71;74.40;164940.00;5077532;28;20135;-82
2022/05/11 02:35:12;;;;;;;6.65;3.00;;;15.80;99.90;;;16.78;74.03;164957.44;5075390;28;20035;-83
2022/05/11 02:36:53;;;;;;;6.05;2.55;;;15.90;99.90;;;16.77;74.33;164954.72;5076272;28;20506;-83
2022/05/11 02:39:19;;;;;;;4.10;2.72;;;15.80;99.90;;;16.75;74.15;164949.38;5075056;28;20029;-83
2022/05/11 02:41:46;;;;;;;4.03;2.70;;;15.80;99.90;;;16.68;74.25;164931.94;5076267;28;20028;-83
2022/05/11 02:44:12;;;;;;;5.95;2.85;;;15.70;99.90;;;16.68;73.83;164931.94;5077631;28;20395;-83
2022/05/11 02:46:38;;;;;;;4.90;2.38;;;15.80;99.90;;;16.68;73.92;164931.94;5075266;28;20031;-82
2022/05/11 02:49:03;;;;;;;5.55;3.15;;;15.70;99.90;;;16.72;74.10;164941.34;5073563;28;20114;-82
2022/05/11 02:51:29;;;;;;;5.00;3.00;;;15.70;99.90;;;16.69;74.25;164934.66;5075086;28;20388;-81
2022/05/11 02:53:55;;;;;;;7.50;2.67;;;15.70;99.90;;;16.66;74.49;164926.56;5074612;28;20036;-82
2022/05/11 02:56:21;;;;;;;4.28;3.05;;;15.70;99.90;;;16.62;74.50;164914.53;5076237;28;20044;-83
2022/05/11 02:58:47;;;;;;;5.57;2.75;;;15.70;99.90;;;16.54;74.88;164893.00;5075292;28;20523;-82
2022/05/11 03:01:14;;;;;;;5.18;3.33;;;15.60;99.90;;;16.53;74.77;164891.69;5079283;28;20033;-83
2022/05/11 03:03:40;;;;;;;7.68;3.28;;;15.60;99.90;;;16.53;74.72;164890.34;5081186;28;20029;-82
2022/05/11 03:06:06;;;;;;;7.63;2.85;;;15.60;99.90;;;16.57;74.51;164901.09;5078912;28;20024;-82
2022/05/11 03:08:34;;;;;;;7.40;3.20;;;15.70;99.90;;;16.61;73.96;164911.81;5076098;28;20020;-81
2022/05/11 03:11:00;;;;;;;6.03;3.10;;;15.70;99.90;;;16.63;73.85;164917.22;5057487;22;20045;-85
2022/05/11 03:13:26;;;;;;;6.68;2.80;;;15.70;99.90;;;16.72;73.40;164941.34;5037134;28;20404;-83
2022/05/11 03:15:53;;;;;;;4.00;2.80;;;15.70;99.90;;;16.68;73.88;164931.94;5034097;28;20025;-80
2022/05/11 03:18:19;;;;;;;8.20;3.15;;;15.70;99.90;;;16.65;73.96;164922.56;5034833;28;20030;-84
2022/05/11 03:20:45;;;;;;;5.88;3.10;;;15.60;99.90;;;16.61;73.92;164911.81;5032889;28;20120;-83
2022/05/11 03:23:11;;;;;;;5.30;2.92;;;15.60;99.90;;;16.60;74.24;164909.19;5033586;28;20101;-84
2022/05/11 03:25:36;;;;;;;4.00;3.05;;;15.70;99.90;;;16.62;74.21;164915.88;5033952;28;20048;-83
2022/05/11 03:28:03;;;;;;;3.67;3.08;;;15.70;99.90;;;16.65;74.46;164922.56;5033738;28;20068;-81
2022/05/11 03:30:28;;;;;;;5.32;2.97;;;15.70;99.90;;;16.64;74.41;164921.22;5034050;28;20171;-84
2022/05/11 03:35:39;;;;;;;4.63;2.80;;;15.60;99.90;;;16.58;75.29;164903.78;5034860;28;20147;-81
2022/05/11 03:38:05;;;;;;;6.57;2.95;;;15.60;99.90;;;16.51;75.55;164884.94;5035388;28;20097;-84
2022/05/11 03:40:31;;;;;;;7.00;3.17;;;15.60;99.90;;;16.50;75.18;164882.31;5036732;28;20026;-82
2022/05/11 03:42:57;;;;;;;7.25;3.10;;;15.60;99.90;;;16.50;74.42;164883.66;5037514;28;20048;-83
2022/05/11 03:45:26;;;;;;;7.88;3.00;;;15.60;99.90;;;16.51;73.68;164886.31;5035590;28;20496;-82
2022/05/11 03:47:52;;;;;;;4.25;2.97;;;15.60;99.90;;;16.54;73.04;164893.00;5037033;28;20104;-83
2022/05/11 03:50:22;;;;;;;6.72;3.88;;;15.60;99.90;;;16.64;72.66;164919.88;5036737;28;20060;-83
2022/05/11 03:52:56;;;;;;;4.53;2.92;;;15.70;99.90;;;16.61;72.82;164911.81;5035653;28;20060;-84
2022/05/11 03:55:26;;;;;;;7.95;3.10;;;15.70;99.90;;;16.64;72.95;164919.88;5036306;28;20036;-82
2022/05/11 03:57:52;;;;;;;6.95;3.70;;;15.70;99.90;;;16.62;72.87;164914.53;5033698;28;20025;-82
2022/05/11 04:00:25;;;;;;;7.10;3.22;;;15.70;99.90;;;16.61;73.17;164913.16;5035536;28;20523;-82
2022/05/11 04:02:55;;;;;;;7.85;3.53;;;15.70;99.90;;;16.62;72.94;164914.53;5035063;28;20439;-84
2022/05/11 04:05:22;;;;;;;5.25;2.97;;;15.70;99.90;;;16.66;72.78;164925.25;5034290;28;20116;-81
2022/05/11 04:07:48;;;;;;;7.47;3.00;;;15.70;99.90;;;16.69;72.69;164933.31;5034964;28;20109;-84
2022/05/11 04:10:18;;;;;;;6.10;3.00;;;15.70;99.90;;;16.72;71.99;164941.34;5041584;28;20040;-84
2022/05/11 04:12:45;;;;;;;10.63;2.97;;;15.80;99.90;;;16.81;71.44;164965.47;5070162;28;20512;-83
2022/05/11 04:15:11;;;;;;;4.60;2.70;;;15.80;99.90;;;16.86;71.65;164978.84;5053531;28;20044;-83
2022/05/11 04:17:38;;;;;;;7.80;3.25;;;15.90;99.90;;;16.95;71.40;165001.69;5054144;28;20479;-82
2022/05/11 04:20:08;;;;;;;8.15;3.22;;;16.00;99.90;;;16.99;71.35;165013.72;5053930;28;20024;-80
2022/05/11 04:22:34;;;;;;;8.93;3.30;;;16.00;99.90;;;17.02;71.46;165020.44;5054741;28;20408;-82
2022/05/11 04:25:00;;;;;;;4.95;3.10;;;16.00;99.90;;;17.05;71.78;165029.81;5054835;28;20048;-82
2022/05/11 04:27:25;;;;;;;6.50;3.00;;;16.10;99.90;;;17.00;71.26;165016.44;5053998;28;20257;-82
2022/05/11 04:29:51;;;;;;;7.32;3.70;;;16.10;99.90;;;17.05;70.90;165029.81;5054684;28;20057;-82
2022/05/11 04:32:17;;;;;;;4.95;2.90;;;16.10;99.90;;;17.07;70.08;165035.22;5055639;28;20025;-82
2022/05/11 04:34:43;;;;;;;6.35;2.72;;;16.10;99.90;;;17.10;69.55;165041.91;5057168;28;20068;-81
2022/05/11 04:37:12;;;;;;;8.45;3.00;;;16.20;99.90;;;17.23;70.06;165078.13;5059449;28;20024;-83
2022/05/11 04:39:39;;;;;;;7.43;3.65;;;16.20;99.90;;;17.28;70.09;165091.53;5059416;28;20025;-84
2022/05/11 04:42:08;;;;;;;4.78;3.50;;;16.20;99.90;;;17.35;69.97;165108.97;5059133;28;20028;-83
2022/05/11 04:44:34;;;;;;;5.13;2.90;;;16.30;99.90;;;17.32;70.53;165100.91;5058827;28;20029;-81
2022/05/11 04:47:07;;;;;;;6.28;3.20;;;16.30;99.90;;;17.36;70.98;165113.00;5075390;28;20021;-83
2022/05/11 04:49:33;;;;;;;10.70;4.25;;;16.30;99.90;;;17.33;71.25;165104.97;5059338;28;20028;-82
2022/05/11 04:52:08;;;;;;;8.52;3.70;;;16.20;99.90;;;17.33;70.96;165104.97;5058645;28;20021;-84
2022/05/11 04:54:49;;;;;;;8.63;3.00;;;16.20;99.90;;;17.31;71.28;165099.56;5058787;28;20111;-82
2022/05/11 04:57:19;;;;;;;7.82;3.22;;;16.30;99.90;;;17.39;71.04;165121.06;5058023;28;20021;-81
2022/05/11 04:59:47;;;;;;;6.65;3.08;;;16.20;99.90;;;17.37;71.15;165115.66;5058185;28;20496;-82
2022/05/11 05:02:19;;;;;;;7.05;3.45;;;16.20;99.90;;;17.32;71.41;165102.25;5059392;28;20079;-81
2022/05/11 05:04:46;;;;;;;7.65;3.70;;;16.30;99.90;;;17.31;71.38;165099.56;5058801;28;20467;-79
2022/05/11 05:07:12;;;;;;;5.20;3.30;;;16.20;99.90;;;17.29;71.46;165094.22;5059829;28;20033;-84
2022/05/11 05:09:38;;;;;;;9.70;3.17;;;16.20;99.90;;;17.32;71.34;165102.25;5055027;28;20047;-85
2022/05/11 05:12:06;;;;;;;6.10;3.10;;;16.30;99.90;;;17.48;70.62;165143.84;5039020;28;20026;-82
2022/05/11 05:14:32;;;;;;;5.60;3.00;;;16.30;99.90;;;17.69;70.34;165198.91;5039645;28;20021;-84
2022/05/11 05:17:09;;;;;;;7.07;3.83;;;16.50;99.90;;;17.96;69.81;165271.34;5040724;28;20025;-84
2022/05/11 05:19:44;;;;;;;10.23;3.15;;;16.70;99.90;;;18.10;69.22;165308.94;5042493;28;20034;-84
2022/05/11 05:22:11;;;;;;;7.60;3.10;;;16.80;99.90;;;18.24;68.76;165345.13;5040882;28;20082;-85
2022/05/11 05:24:37;;;;;;;5.95;3.17;;;17.00;99.90;;;18.35;67.58;165376.03;5039129;28;20030;-82
2022/05/11 05:27:04;;;;;;;6.38;3.17;;;17.10;99.90;;;18.39;67.55;165385.44;5038185;28;20033;-83
2022/05/11 05:32:16;;;;;;;6.53;3.28;;;17.20;99.90;;;18.46;67.60;165404.22;5039687;28;20033;-85
2022/05/11 05:34:43;;;;;;;5.53;3.40;;;17.20;99.90;;;18.39;67.33;165385.44;5038073;28;20026;-83
2022/05/11 05:37:12;;;;;;;7.90;3.15;;;17.20;99.90;;;18.43;67.60;165396.13;5039422;28;20104;-85
2022/05/11 05:39:38;;;;;;;9.65;3.90;;;17.30;99.90;;;18.56;67.39;165429.78;5039785;28;20032;-84
2022/05/11 05:42:05;;;;;;;9.27;3.80;;;17.30;99.90;;;18.60;67.81;165440.50;5043162;28;20045;-83
2022/05/11 05:44:32;;;;;;;5.68;2.90;;;17.40;99.90;;;18.65;67.46;165455.28;5040288;28;20021;-81
2022/05/11 05:47:08;;;;;;;5.13;3.25;;;17.50;99.90;;;18.76;67.47;165484.78;5040315;28;20044;-82
2022/05/11 05:49:35;;;;;;;6.50;3.20;;;17.50;99.90;;;18.76;67.29;165484.78;5039922;28;20116;-82
2022/05/11 05:52:03;;;;;;;8.38;3.60;;;17.60;99.90;;;18.86;65.76;165510.31;5040163;28;20119;-81
2022/05/11 05:54:31;;;;;;;5.18;2.95;;;17.70;99.90;;;18.98;65.23;165542.50;5039508;28;20057;-79
2022/05/11 05:56:59;;;;;;;6.35;3.40;;;17.70;99.90;;;18.94;65.17;165533.09;5039191;28;20118;-81
2022/05/11 05:59:25;;;;;;;6.25;2.88;;;17.80;99.90;;;19.05;64.45;165561.31;5038995;28;20065;-78
2022/05/11 06:01:52;;;;;;;6.43;2.97;;;17.90;99.90;;;19.47;63.15;165672.84;5039569;28;20030;-81
2022/05/11 06:04:18;;;;;;;5.28;3.03;;;18.20;99.90;;;19.82;62.27;165765.50;5038368;28;20027;-82
2022/05/11 06:06:44;;;;;;;8.65;3.80;;;18.50;99.90;;;19.80;62.24;165761.50;5038977;28;20374;-82
2022/05/11 06:09:10;;;;;;;9.73;3.75;;;18.60;99.90;;;20.05;62.03;165827.31;5037593;28;20036;-81
2022/05/11 06:11:37;;;;;;;7.28;4.53;;;18.90;99.90;;;20.40;61.25;165920.06;5056396;28;20047;-81
2022/05/11 06:14:04;;;;;;;5.10;3.97;;;19.20;99.90;;;20.70;60.70;165999.38;5058645;28;20029;-82
2022/05/11 06:16:33;;;;;;;7.15;4.72;;;19.50;99.90;;;21.11;59.55;166108.28;5056673;28;20092;-81
2022/05/11 06:19:00;;;;;;;9.85;4.88;;;19.90;99.90;;;21.55;58.31;166227.94;5061465;28;20020;-84
2022/05/11 06:21:26;;;;;;;9.02;5.55;;;20.20;99.90;;;21.73;57.66;166275.03;5060515;28;20025;-81
2022/05/11 06:23:52;;;;;;;11.25;4.80;;;20.50;99.90;;;22.01;56.43;166349.03;5063195;28;20032;-82
2022/05/11 06:26:19;;;;;;;7.50;5.13;;;20.70;99.90;;;21.69;57.01;166264.25;5058317;28;20025;-82
2022/05/11 06:28:46;;;;;;;7.57;5.07;;;20.70;99.90;;;21.94;56.95;166330.19;5057480;28;20036;-84
2022/05/11 06:31:14;;;;;;;7.28;5.13;;;20.80;99.90;;;22.29;55.67;166424.34;5057534;28;20108;-81
2022/05/11 06:33:46;;;;;;;8.85;5.25;;;20.90;99.90;;;22.57;54.79;166498.38;5072861;28;20128;-81
2022/05/11 06:36:13;;;;;;;9.88;5.07;;;21.20;99.90;;;22.66;54.47;166522.63;5057140;28;20453;-81
2022/05/11 06:38:39;;;;;;;9.00;4.60;;;21.30;99.90;;;22.81;53.95;166561.63;5055395;28;20037;-81
2022/05/11 06:41:15;;;;;;;9.07;5.18;;;21.40;99.90;;;22.84;54.22;166569.69;5056758;28;20041;-82
2022/05/11 06:43:41;;;;;;;7.63;4.85;;;21.50;99.90;;;22.99;54.27;166611.41;5057238;28;20367;-82
2022/05/11 06:46:08;;;;;;;9.48;4.80;;;21.70;99.90;;;23.29;53.51;166690.81;5055683;28;20040;-84
2022/05/11 06:48:34;;;;;;;8.52;4.72;;;21.90;99.90;;;23.79;53.23;166822.81;5055232;28;20199;-82
2022/05/11 06:51:00;;;;;;;7.75;5.00;;;22.30;99.90;;;23.61;52.88;166777.00;5056219;28;20039;-82
2022/05/11 06:53:27;;;;;;;8.18;4.75;;;22.30;99.60;;;23.56;52.38;166762.22;5055609;28;20124;-81
2022/05/11 07:01:21;;;;;;;7.45;4.93;;;22.60;98.40;;;24.41;50.66;166989.78;5057145;28;20039;-82
2022/05/11 07:03:48;;;;;;;8.70;5.13;;;22.80;96.10;;;24.59;49.93;167038.25;5057309;28;20037;-82
2022/05/11 07:06:14;;;;;;;8.25;5.57;;;23.00;94.20;;;24.54;50.47;167023.47;5056433;28;20029;-83
2022/05/11 07:08:44;;;;;;;7.85;5.03;;;23.10;93.80;;;24.68;48.78;167061.19;5056878;28;20033;-81
2022/05/11 07:13:57;;;;;;;8.18;5.15;;;23.40;91.80;;;25.25;48.55;167213.44;5018704;28;20063;-81
2022/05/11 07:16:24;;;;;;;12.35;5.05;;;23.60;91.10;;;24.91;49.20;167123.22;5017904;28;20397;-79
2022/05/11 07:18:50;;;;;;;10.90;4.82;;;23.50;90.50;;;25.44;47.67;167263.28;5018792;28;20108;-84
2022/05/11 07:21:16;;;;;;;8.50;4.47;;;23.80;89.50;;;25.43;47.39;167261.94;5018813;28;20477;-82
2022/05/11 07:23:41;;;;;;;11.90;5.30;;;23.90;86.50;;;25.44;46.37;167264.66;5018183;28;20092;-83
2022/05/11 07:26:08;;;;;;;7.85;4.35;;;24.00;82.50;;;25.61;47.40;167309.19;5017083;28;20030;-82
2022/05/11 07:28:34;;;;;;;10.20;4.82;;;24.00;84.90;;;25.55;46.20;167294.38;5017443;28;20117;-84
2022/05/11 07:31:00;;;;;;;7.85;4.47;;;24.10;81.60;;;25.79;46.74;167356.31;5017440;28;20072;-82
2022/05/11 07:33:28;;;;;;;10.68;4.35;;;24.30;82.40;;;25.91;46.49;167388.69;5018563;28;20433;-83
2022/05/11 07:35:54;;;;;;;8.68;4.90;;;24.40;81.00;;;25.74;44.91;167342.88;5026077;28;20014;-80
2022/05/11 07:38:20;;;;;;;8.88;4.50;;;24.30;76.90;;;25.56;45.47;167295.66;5032269;28;20053;-82
2022/05/11 07:40:46;;;;;;;8.10;3.65;;;24.10;77.30;;;25.57;46.13;167299.75;5017089;28;20034;-80
2022/05/11 07:43:13;;;;;;;8.73;4.63;;;24.10;78.30;;;25.43;45.80;167260.63;5016694;28;20071;-81
2022/05/11 07:45:41;;;;;;;6.32;4.40;;;24.00;77.80;;;25.96;44.96;167402.16;5016743;28;20057;-82
2022/05/11 07:48:09;;;;;;;9.20;4.95;;;24.30;77.20;;;26.17;44.66;167458.81;5015660;28;20523;-84
2022/05/11 07:50:35;;;;;;;8.55;5.25;;;24.40;76.50;;;26.28;44.87;167487.13;5017152;28;20038;-82
2022/05/11 07:53:01;;;;;;;7.90;5.05;;;24.60;76.50;;;26.82;44.24;167632.78;5016469;28;20105;-82
2022/05/11 07:55:28;;;;;;;9.82;5.20;;;25.00;76.50;;;26.70;43.37;167601.75;5018420;28;20033;-84
2022/05/11 08:00:41;;;;;;;9.55;5.50;;;25.50;71.90;;;27.53;40.74;167823.00;5017322;28;20070;-82
2022/05/11 08:03:09;;;;;;;10.57;5.07;;;25.70;69.00;;;26.79;41.51;167623.28;5016009;28;20029;-82
2022/05/11 08:05:35;;;;;;;8.80;5.10;;;25.40;68.20;;;26.67;42.71;167593.66;5015171;28;20120;-83
2022/05/11 08:08:07;;;;;;;9.80;4.35;;;25.20;69.60;;;27.31;42.49;167762.25;5019700;28;20083;-84
2022/05/11 08:10:43;;;;;;;8.50;5.05;;;25.50;71.00;;;27.93;41.24;167929.59;5044165;28;20036;-83
2022/05/11 08:13:10;;;;;;;7.95;4.45;;;25.90;70.30;;;27.96;40.41;167937.69;5062563;28;20044;-83
2022/05/11 08:15:43;;;;;;;10.95;5.05;;;26.10;68.00;;;28.34;38.91;168038.91;5062340;28;20028;-83
2022/05/11 08:18:13;;;;;;;9.82;5.63;;;26.40;65.50;;;28.14;38.82;167984.94;5061795;28;20033;-82
2022/05/11 08:20:43;;;;;;;7.85;4.60;;;26.30;64.40;;;28.05;39.48;167962.00;5058348;28;20032;-82
2022/05/11 08:23:12;;;;;;;17.15;5.15;;;26.10;65.70;;;28.35;40.12;168041.63;5059950;28;20029;-80
2022/05/11 08:25:41;;;;;;;9.57;5.40;;;26.40;66.20;;;28.70;38.20;168136.16;5059177;28;20071;-82
2022/05/11 08:28:19;;;;;;;8.07;5.05;;;26.70;63.60;;;28.56;37.96;168096.94;5058377;28;20065;-81
2022/05/11 08:33:38;;;;;;;11.35;5.57;;;26.30;62.00;;;27.66;39.20;167858.06;5059959;28;20044;-82
2022/05/11 08:36:14;;;;;;;8.45;5.25;;;26.10;62.70;;;27.42;39.62;167791.94;5057680;28;20477;-84
2022/05/11 08:38:46;;;;;;;8.73;4.72;;;25.80;63.30;;;27.48;39.79;167808.16;5057817;28;20036;-84
2022/05/11 08:41:45;;;;;;;8.00;4.68;;;25.80;63.80;;;27.90;39.50;167920.13;5056797;28;20021;-81
2022/05/11 08:44:18;;;;;;;7.55;4.53;;;25.80;64.10;;;27.53;38.88;167823.00;5059127;28;20025;-81
2022/05/11 08:47:37;;;;;;;7.55;3.92;;;25.80;62.50;;;28.16;38.45;167991.66;5060793;28;20124;-82
2022/05/11 08:50:23;;;;;;;6.00;3.40;;;26.10;63.10;;;27.71;37.92;167870.19;5061446;28;20096;-83
2022/05/11 08:53:05;;;;;;;5.07;2.95;;;26.10;60.70;;;27.32;38.50;167766.31;5059169;28;20040;-79
2022/05/11 08:55:48;;;;;;;5.60;2.97;;;25.70;61.10;;;27.35;39.03;167774.41;5060954;28;20025;-81
2022/05/11 08:58:41;;;;;;;5.82;3.35;;;25.70;61.90;;;26.81;39.34;167630.06;5060329;28;20035;-82
2022/05/11 09:01:20;;;;;;;6.43;3.20;;;25.50;61.40;;;26.51;40.90;167550.50;5061982;28;20029;-83
2022/05/11 09:03:54;;;;;;;7.35;3.42;;;25.20;64.00;;;26.86;40.12;167642.22;5059304;28;20096;-83
2022/05/11 09:06:30;;;;;;;5.43;3.40;;;25.30;63.10;;;26.96;39.80;167669.19;5057753;28;20020;-82
2022/05/11 09:09:00;;;;;;;6.63;3.42;;;25.40;62.70;;;27.10;39.93;167708.28;5058420;28;20097;-82
2022/05/11 09:11:50;;;;;;;5.63;3.40;;;25.60;63.00;;;26.65;40.09;167588.22;5066973;23;20045;-89
2022/05/11 09:15:01;;;;;;;6.97;3.10;;;25.30;62.20;;;27.04;40.80;167690.75;5057964;28;20034;-81
2022/05/11 09:17:40;;;;;;;5.47;3.05;;;25.40;64.20;;;27.07;39.15;167700.19;5051472;28;20053;-85
2022/05/11 09:20:23;;;;;;;5.28;2.40;;;25.60;61.90;;;27.16;40.05;167723.16;5035660;28;20033;-84
2022/05/11 09:23:03;;;;;;;7.55;2.60;;;25.70;62.90;;;27.44;39.13;167798.72;5036381;28;20033;-84
2022/05/11 09:25:37;;;;;;;10.35;3.92;;;25.80;61.90;;;27.14;39.05;167717.72;5035312;28;20025;-89
2022/05/11 09:28:32;;;;;;;6.03;3.28;;;25.80;60.70;;;27.12;39.92;167713.72;5035160;28;20500;-84
2022/05/11 09:31:08;;;;;;;6.45;3.28;;;25.70;61.90;;;27.26;40.33;167748.78;5034390;28;20385;-85
2022/05/11 09:33:39;;;;;;;6.93;3.25;;;25.80;62.80;;;27.30;39.28;167759.53;5036206;28;20072;-84
2022/05/11 09:36:10;;;;;;;5.43;2.80;;;25.80;61.50;;;27.46;39.88;167802.75;5034748;28;20135;-84
2022/05/11 09:38:46;;;;;;;5.30;2.35;;;25.80;63.20;;;28.07;40.00;167967.38;5034445;28;20457;-86
2022/05/11 09:41:29;;;;;;;;;;;26.30;63.80;;;28.62;38.08;168113.13;5034449;28;20068;-84
2022/05/11 09:43:58;;;;;;;4.80;2.78;;;26.70;61.50;;;28.31;37.70;168030.81;5035470;28;19913;-83
2022/05/11 09:46:27;;;;;;;8.77;2.50;;;26.70;59.90;;;28.26;38.87;168018.66;5034742;28;20033;-85
2022/05/11 09:49:24;;;;;;;4.55;2.65;;;26.60;61.40;;;28.52;39.00;168087.47;5035050;28;20033;-89
2022/05/11 09:51:50;;;;;;;3.67;2.25;;;26.80;61.90;;;29.29;37.39;168292.75;5035266;28;20027;-84
2022/05/11 09:54:38;;;;;;;12.35;2.92;;;27.40;60.50;;;29.26;36.14;168286.00;5034051;28;20025;-87
2022/05/11 09:57:09;;;;;;;4.03;2.55;;;27.60;58.30;;;28.89;36.58;168184.72;5034129;28;20025;-85
2022/05/11 10:00:38;;;;;;;9.05;2.95;;;27.30;57.80;;;28.20;37.84;168002.47;5034544;28;20025;-85
2022/05/11 10:03:20;;;;;;;6.85;2.35;;;26.90;58.80;;;28.72;37.33;168141.53;5041363;28;20136;-83
2022/05/11 10:05:53;;;;;;;5.90;3.00;;;27.00;59.30;;;28.47;37.41;168074.00;5033598;28;20030;-83
2022/05/11 10:08:35;;;;;;;6.00;2.42;;;26.90;59.70;;;28.29;36.51;168025.38;5032903;28;20029;-83
2022/05/11 10:11:08;;;;;;;8.43;2.85;;;26.80;57.70;;;27.54;38.46;167824.34;5046913;28;20508;-86
2022/05/11 10:23:30;;;;;;;7.68;3.10;;;26.90;60.00;;;28.20;36.93;168002.47;5053950;28;20032;-88
2022/05/11 10:26:17;;;;;;;9.45;3.35;;;26.90;57.20;;;27.02;39.43;167685.38;5052345;28;20021;-84
2022/05/11 10:29:07;;;;;;;5.28;2.72;;;26.10;59.10;;;27.54;39.67;167825.72;5064776;28;20056;-86
2022/05/11 10:32:13;;;;;;;6.55;2.83;;;26.20;61.00;;;27.85;37.74;167906.63;5072231;28;20058;-84
2022/05/11 10:35:19;;;;;;;4.25;2.60;;;26.50;59.60;;;27.16;39.30;167724.47;5067779;28;20477;-84
2022/05/11 10:38:01;;;;;;;3.75;2.25;;;26.10;59.40;;;27.34;39.51;167770.34;5052638;28;20029;-86
2022/05/11 10:40:49;;;;;;;4.25;2.25;;;26.10;60.20;;;27.74;39.14;167879.63;5052210;28;20044;-85
2022/05/11 10:43:52;;;;;;;4.72;2.47;;;26.40;60.10;;;27.89;38.46;167918.78;5053373;28;20086;-83
2022/05/11 10:47:05;;;;;;;10.77;3.13;;;26.50;60.10;;;27.63;38.75;167849.97;5052960;28;20025;-83
2022/05/11 10:49:59;;;;;;;4.60;2.15;;;26.40;59.20;;;28.13;38.24;167983.56;5052320;28;20025;-87
2022/05/11 10:53:34;;;;;;;9.32;3.33;;;26.60;59.50;;;27.62;38.49;167847.28;5053789;28;20032;-84
2022/05/11 10:56:25;;;;;;;8.75;2.80;;;26.60;58.30;;;28.08;37.90;167968.75;5052907;28;20404;-86
2022/05/11 10:59:32;;;;;;;7.22;2.35;;;26.60;59.10;;;28.24;38.31;168013.28;5053389;28;20066;-85
2022/05/11 11:03:05;;;;;;;6.03;2.60;;;26.90;59.10;;;27.86;38.10;167909.34;5069665;28;20538;-82
2022/05/11 11:05:40;;;;;;;8.18;3.45;;;26.80;57.60;;;27.85;37.71;167906.63;5052302;28;20052;-85
2022/05/11 11:08:43;;;;;;;7.00;2.80;;;26.70;58.10;;;27.51;38.12;167816.25;5054148;28;20441;-85
2022/05/11 11:11:31;;;;;;;8.63;2.72;;;26.60;58.10;;;26.79;40.01;167623.28;5036764;28;20408;-82